EIKN/NOC METAR and TAF weather

Enter ICAO airport designator
Station Type Date Time Source
EIKN METAR 2018/12/12 16:30 UTC NOAA

EIKN 121630Z 14014KT 9999 SCT003 SCT095 BKN160 05/05 Q1006 NOSIG


Station Type Date Time Source
EIKN Decoded METAR 2018/12/12 16:30 UTC NOAA

Connaught, Ireland (EIKN) 53-54-37N 008-49-05W
Dec 12, 2018 - 11:30 AM EST / 2018.12.12 1630 UTC
Wind: from the SE (140 degrees) at 16 MPH (14 KT):0
Visibility: greater than 7 mile(s):0
Sky conditions: mostly cloudy
Temperature: 41 F (5 C)
Dew Point: 41 F (5 C)
Relative Humidity: 100%
Pressure (altimeter): 29.71 in. Hg (1006 hPa)
ob: EIKN 121630Z 14014KT 9999 SCT003 SCT095 BKN160 05/05 Q1006 NOSIG
cycle: 16

Station Type Date Time Source
EIKN TAF 2018/12/12 12:32 UTC NOAA

TAF COR EIKN 121423Z 1212/1312 14011KT 9999 SCT010 BKN030
BECMG 1216/1218 14016G29KT
TEMPO 1302/1312 13020G35KT 4000 -RA BKN007


Example: see airport list